Time;durP1;ratioP1;P1;durP2;ratioP2;P2;SDS_P1;SDS_P2;PMS_P1;PMS_P2;Temp;Humidity;BMP_temperature;BMP_pressure;BME280_temperature;BME280_humidity;BME280_pressure;Samples;Min_cycle;Max_cycle;Signal;HPM_P1;HPM_P2
2024/03/03 00:02:01;;;;;;;;;;;;;;;7.91;100.00;95861.95;107216;1295;22552;-88
2024/03/03 00:04:28;;;;;;;;;;;;;;;7.86;100.00;95863.45;107185;1296;23631;-88
2024/03/03 00:06:55;;;;;;;;;;;;;;;7.79;100.00;95862.27;107112;1290;22519;-88
2024/03/03 00:09:22;;;;;;;;;;;;;;;7.71;100.00;95860.89;107452;1297;22515;-88
2024/03/03 00:11:48;;;;;;;;;;;;;;;7.67;100.00;95867.83;107230;1297;23712;-88
2024/03/03 00:14:15;;;;;;;;;;;;;;;7.63;100.00;95869.33;107159;1298;24255;-87
2024/03/03 00:16:41;;;;;;;;;;;;;;;7.60;100.00;95866.84;107270;1293;22603;-87
2024/03/03 00:19:09;;;;;;;;;;;;;;;7.64;100.00;95866.30;107479;1297;22458;-88
2024/03/03 00:21:36;;;;;;;;;;;;;;;7.65;100.00;95863.23;107496;1297;23855;-88
2024/03/03 00:24:02;;;;;;;;;;;;;;;7.65;100.00;95865.58;107431;1297;22544;-88
2024/03/03 00:26:30;;;;;;;;;;;;;;;7.67;100.00;95869.41;107317;1293;23465;-88
2024/03/03 00:28:57;;;;;;;;;;;;;;;7.71;100.00;95863.52;107260;1292;22681;-88
2024/03/03 00:31:24;;;;;;;;;;;;;;;7.80;100.00;95861.68;107271;1293;25341;-87
2024/03/03 00:33:50;;;;;;;;;;;;;;;7.87;100.00;95860.68;107246;1292;25424;-87
2024/03/03 00:36:17;;;;;;;;;;;;;;;7.93;100.00;95859.44;107251;1290;23122;-88
2024/03/03 00:38:43;;;;;;;;;;;;;;;7.98;100.00;95860.05;107265;1292;22511;-87
2024/03/03 00:41:10;;;;;;;;;;;;;;;7.98;100.00;95858.76;107229;1297;22587;-87
2024/03/03 00:43:36;;;;;;;;;;;;;;;7.99;100.00;95854.84;107236;1293;24259;-88
2024/03/03 00:46:03;;;;;;;;;;;;;;;8.02;100.00;95851.70;108311;1295;22529;-88
2024/03/03 00:48:29;;;;;;;;;;;;;;;8.08;100.00;95850.27;108566;1289;23211;-88
2024/03/03 00:50:56;;;;;;;;;;;;;;;8.16;100.00;95841.98;107788;1298;25370;-88
2024/03/03 00:53:23;;;;;;;;;;;;;;;8.24;100.00;95841.54;107252;1292;22518;-88
2024/03/03 00:55:51;;;;;;;;;;;;;;;8.27;100.00;95836.16;107198;1298;22535;-88
2024/03/03 00:58:17;;;;;;;;;;;;;;;8.32;100.00;95830.33;107175;1295;22533;-87
2024/03/03 01:00:44;;;;;;;;;;;;;;;8.37;100.00;95830.48;107282;1292;22535;-87
2024/03/03 01:03:10;;;;;;;;;;;;;;;8.41;100.00;95824.61;107343;1289;22591;-87
2024/03/03 01:05:37;;;;;;;;;;;;;;;8.43;100.00;95817.47;107254;1297;22687;-88
2024/03/03 01:08:03;;;;;;;;;;;;;;;8.47;99.93;95821.42;107256;1292;22578;-87
2024/03/03 01:10:30;;;;;;;;;;;;;;;8.50;100.00;95820.19;107190;1298;23789;-88
2024/03/03 01:12:56;;;;;;;;;;;;;;;8.51;100.00;95823.58;107362;1297;22547;-86
2024/03/03 01:15:23;;;;;;;;;;;;;;;8.50;100.00;95824.30;107460;1292;22539;-88
2024/03/03 01:17:50;;;;;;;;;;;;;;;8.51;100.00;95823.58;107247;1296;22523;-88
2024/03/03 01:20:20;;;;;;;;;;;;;;;8.50;100.00;95828.16;107990;1297;22497;-88
2024/03/03 01:22:46;;;;;;;;;;;;;;;8.49;100.00;95832.05;107310;1292;22520;-88
2024/03/03 01:25:13;;;;;;;;;;;;;;;8.49;100.00;95837.75;107190;1297;22570;-88
2024/03/03 01:27:39;;;;;;;;;;;;;;;8.48;99.90;95830.29;107328;1297;22528;-88
2024/03/03 01:30:06;;;;;;;;;;;;;;;8.49;99.93;95829.50;107192;1297;25283;-88
2024/03/03 01:32:33;;;;;;;;;;;;;;;8.50;100.00;95822.39;107212;1294;22500;-88
2024/03/03 01:34:59;;;;;;;;;;;;;;;8.49;99.65;95817.00;107156;1293;23826;-88
2024/03/03 01:37:25;;;;;;;;;;;;;;;8.49;99.74;95815.77;107265;1295;22541;-87
2024/03/03 01:39:52;;;;;;;;;;;;;;;8.52;100.00;95816.50;107359;1295;22646;-88
2024/03/03 01:42:19;;;;;;;;;;;;;;;8.54;98.94;95815.60;107420;1290;23058;-88
2024/03/03 01:44:45;;;;;;;;;;;;;;;8.56;99.55;95814.91;107207;1298;22518;-88
2024/03/03 01:47:13;;;;;;;;;;;;;;;8.56;99.13;95819.58;107169;1297;22514;-88
2024/03/03 01:49:39;;;;;;;;;;;;;;;8.60;99.28;95819.84;107117;1298;22543;-87
2024/03/03 01:52:07;;;;;;;;;;;;;;;8.61;99.12;95824.88;107346;1296;22608;-88
2024/03/03 01:54:34;;;;;;;;;;;;;;;8.62;98.50;95824.29;107302;1298;25248;-88
2024/03/03 01:57:01;;;;;;;;;;;;;;;8.63;98.77;95827.55;107180;1289;24241;-89
2024/03/03 01:59:28;;;;;;;;;;;;;;;8.65;99.12;95828.80;107170;1292;22642;-88
2024/03/03 02:01:57;;;;;;;;;;;;;;;8.65;99.12;95835.46;107267;1296;22467;-88
2024/03/03 02:04:24;;;;;;;;;;;;;;;8.65;98.59;95831.66;107306;1298;22540;-88
2024/03/03 02:06:50;;;;;;;;;;;;;;;8.65;98.80;95833.35;108640;1295;22465;-88
2024/03/03 02:09:17;;;;;;;;;;;;;;;8.64;98.73;95823.46;108509;1297;22467;-88
2024/03/03 02:11:43;;;;;;;;;;;;;;;8.62;98.41;95826.27;108461;1292;22990;-88
2024/03/03 02:14:10;;;;;;;;;;;;;;;8.61;98.69;95822.64;108582;1292;23172;-88
2024/03/03 02:16:36;;;;;;;;;;;;;;;8.60;98.44;95819.29;108669;1295;22491;-88
2024/03/03 02:19:04;;;;;;;;;;;;;;;8.59;98.32;95816.09;108600;1298;23625;-88
2024/03/03 02:21:31;;;;;;;;;;;;;;;8.61;98.23;95815.08;108675;1293;22459;-88
2024/03/03 02:23:57;;;;;;;;;;;;;;;8.62;98.32;95813.92;108506;1292;22457;-88
2024/03/03 02:26:24;;;;;;;;;;;;;;;8.60;98.00;95813.20;107948;1298;22920;-88
2024/03/03 02:28:51;;;;;;;;;;;;;;;8.60;97.96;95815.55;107215;1292;24224;-88
2024/03/03 02:31:18;;;;;;;;;;;;;;;8.58;97.78;95813.69;107333;1290;22551;-87
2024/03/03 02:33:44;;;;;;;;;;;;;;;8.53;98.27;95814.16;107186;1298;22634;-88
2024/03/03 02:36:13;;;;;;;;;;;;;;;8.42;98.22;95815.35;107398;1294;24183;-87
2024/03/03 02:38:41;;;;;;;;;;;;;;;8.37;98.53;95810.60;107209;1297;22631;-88
2024/03/03 02:41:08;;;;;;;;;;;;;;;8.35;98.55;95811.41;107131;1295;22558;-88
2024/03/03 02:43:34;;;;;;;;;;;;;;;8.32;98.97;95809.69;107202;1298;22532;-89
2024/03/03 02:46:01;;;;;;;;;;;;;;;8.27;99.01;95808.52;107414;1295;22537;-89
2024/03/03 02:48:27;;;;;;;;;;;;;;;8.18;98.82;95806.16;107248;1295;22538;-89
2024/03/03 02:50:54;;;;;;;;;;;;;;;8.15;99.24;95804.69;107298;1297;24241;-88
2024/03/03 02:53:21;;;;;;;;;;;;;;;8.13;99.36;95805.73;108608;1298;22538;-88
2024/03/03 02:55:48;;;;;;;;;;;;;;;8.01;98.94;95806.74;108551;1298;23200;-88
2024/03/03 02:58:15;;;;;;;;;;;;;;;7.90;99.07;95802.05;108704;1297;22489;-88
2024/03/03 03:00:41;;;;;;;;;;;;;;;7.81;98.85;95797.91;108598;1292;22462;-88
2024/03/03 03:03:08;;;;;;;;;;;;;;;7.67;99.00;95796.06;108472;1298;22442;-86
2024/03/03 03:05:34;;;;;;;;;;;;;;;7.56;99.14;95796.02;108584;1295;23302;-86
2024/03/03 03:08:01;;;;;;;;;;;;;;;7.44;99.30;95793.25;108701;1295;22426;-86
2024/03/03 03:10:27;;;;;;;;;;;;;;;7.34;99.71;95794.77;108372;1297;24201;-88
2024/03/03 03:12:54;;;;;;;;;;;;;;;7.27;99.77;95793.38;107395;1297;22535;-88
2024/03/03 03:15:20;;;;;;;;;;;;;;;7.19;99.97;95786.64;107191;1298;22518;-88
2024/03/03 03:17:47;;;;;;;;;;;;;;;7.21;100.00;95786.55;107277;1297;22961;-89
2024/03/03 03:20:16;;;;;;;;;;;;;;;7.20;100.00;95787.14;107289;1297;22521;-88
2024/03/03 03:22:42;;;;;;;;;;;;;;;7.20;100.00;95785.63;107210;1292;22561;-88
2024/03/03 03:25:09;;;;;;;;;;;;;;;7.19;100.00;95789.02;107294;1295;22545;-88
2024/03/03 03:27:36;;;;;;;;;;;;;;;7.10;100.00;95789.90;107320;1295;22570;-88
2024/03/03 03:30:06;;;;;;;;;;;;;;;7.01;100.00;95789.92;107266;1297;22537;-88
2024/03/03 03:32:32;;;;;;;;;;;;;;;6.87;100.00;95796.33;107287;1296;22573;-88
2024/03/03 03:34:59;;;;;;;;;;;;;;;6.74;100.00;95797.48;107171;1297;22472;-88
2024/03/03 03:37:25;;;;;;;;;;;;;;;6.63;100.00;95796.64;107254;1298;24193;-88
2024/03/03 03:39:52;;;;;;;;;;;;;;;6.54;100.00;95795.58;107321;1295;22541;-88
2024/03/03 03:42:18;;;;;;;;;;;;;;;6.42;100.00;95793.67;107394;1292;22503;-88
2024/03/03 03:44:45;;;;;;;;;;;;;;;6.32;100.00;95796.10;107185;1298;23833;-88
2024/03/03 03:47:11;;;;;;;;;;;;;;;6.28;100.00;95799.58;107272;1298;22523;-88
2024/03/03 03:49:38;;;;;;;;;;;;;;;6.23;100.00;95798.65;107192;1298;22556;-88
2024/03/03 03:52:04;;;;;;;;;;;;;;;6.17;100.00;95800.30;107451;1297;22577;-88
2024/03/03 03:54:31;;;;;;;;;;;;;;;6.13;100.00;95798.67;107190;1293;22557;-88
2024/03/03 03:56:58;;;;;;;;;;;;;;;6.16;100.00;95801.50;107322;1293;22459;-87
2024/03/03 03:59:25;;;;;;;;;;;;;;;6.13;100.00;95795.93;107316;1290;22561;-88
2024/03/03 04:01:52;;;;;;;;;;;;;;;6.14;100.00;95799.36;107363;1292;22492;-87
2024/03/03 04:04:18;;;;;;;;;;;;;;;6.11;100.00;95798.83;107074;1298;22592;-88
2024/03/03 04:06:44;;;;;;;;;;;;;;;6.10;100.00;95792.00;107305;1290;22514;-88
2024/03/03 04:09:12;;;;;;;;;;;;;;;6.05;100.00;95794.52;107431;1297;25277;-88
2024/03/03 04:11:38;;;;;;;;;;;;;;;6.04;100.00;95789.08;107127;1292;22550;-88
2024/03/03 04:14:05;;;;;;;;;;;;;;;6.10;100.00;95791.70;107429;1297;23872;-88
2024/03/03 04:16:31;;;;;;;;;;;;;;;6.09;100.00;95791.06;107988;1295;23219;-88
2024/03/03 04:19:02;;;;;;;;;;;;;;;6.08;100.00;95789.33;108560;1296;23151;-89
2024/03/03 04:21:29;;;;;;;;;;;;;;;6.04;100.00;95788.90;108475;1292;22458;-89
2024/03/03 04:23:55;;;;;;;;;;;;;;;6.00;100.00;95782.39;108619;1297;22522;-89
2024/03/03 04:26:22;;;;;;;;;;;;;;;6.07;100.00;95781.17;108308;1298;25290;-88
2024/03/03 04:28:48;;;;;;;;;;;;;;;6.17;100.00;95785.03;107165;1290;22503;-88
2024/03/03 04:31:15;;;;;;;;;;;;;;;6.22;100.00;95786.85;107367;1297;22570;-88
2024/03/03 04:33:41;;;;;;;;;;;;;;;6.26;100.00;95783.17;107283;1298;25401;-88
2024/03/03 04:36:09;;;;;;;;;;;;;;;6.34;100.00;95780.74;107453;1297;25284;-88
2024/03/03 04:38:37;;;;;;;;;;;;;;;6.44;100.00;95775.65;108603;1298;23199;-89
2024/03/03 04:41:10;;;;;;;;;;;;;;;6.41;100.00;95773.42;108576;1297;22468;-89
2024/03/03 04:43:37;;;;;;;;;;;;;;;6.32;100.00;95776.08;108566;1298;23169;-86
2024/03/03 04:46:03;;;;;;;;;;;;;;;6.27;100.00;95779.08;107844;1296;22488;-88
2024/03/03 04:48:30;;;;;;;;;;;;;;;6.22;100.00;95782.12;107324;1285;23251;-88
2024/03/03 04:50:56;;;;;;;;;;;;;;;6.27;100.00;95777.44;107372;1297;22688;-88
2024/03/03 04:53:23;;;;;;;;;;;;;;;6.27;100.00;95774.34;107242;1297;22580;-88
2024/03/03 04:55:50;;;;;;;;;;;;;;;6.21;100.00;95774.32;107160;1298;25249;-88
2024/03/03 04:58:17;;;;;;;;;;;;;;;6.14;100.00;95776.66;107254;1297;23256;-88
2024/03/03 05:00:43;;;;;;;;;;;;;;;6.09;100.00;95775.82;107320;1290;22563;-88
2024/03/03 05:03:10;;;;;;;;;;;;;;;6.08;100.00;95776.95;107233;1298;22559;-88
2024/03/03 05:05:37;;;;;;;;;;;;;;;6.19;100.00;95775.86;107049;1292;23596;-88
2024/03/03 05:08:04;;;;;;;;;;;;;;;6.31;100.00;95777.23;107269;1290;22617;-88
2024/03/03 05:10:30;;;;;;;;;;;;;;;6.25;100.00;95773.67;107199;1293;22513;-88
2024/03/03 05:12:57;;;;;;;;;;;;;;;6.18;100.00;95768.20;107284;1293;22566;-88
2024/03/03 05:15:23;;;;;;;;;;;;;;;6.17;100.00;95768.83;107150;1295;23153;-88
2024/03/03 05:17:50;;;;;;;;;;;;;;;6.13;100.00;95767.48;108015;1298;22518;-88
2024/03/03 05:20:18;;;;;;;;;;;;;;;6.09;100.00;95765.11;108589;1295;22471;-87
2024/03/03 05:22:44;;;;;;;;;;;;;;;6.00;100.00;95762.11;108483;1297;22447;-87
2024/03/03 05:25:11;;;;;;;;;;;;;;;5.97;100.00;95766.77;108551;1291;22414;-87
2024/03/03 05:27:37;;;;;;;;;;;;;;;5.95;100.00;95761.38;108547;1293;22467;-87
2024/03/03 05:30:04;;;;;;;;;;;;;;;5.96;100.00;95761.67;108472;1298;22469;-87
2024/03/03 05:32:30;;;;;;;;;;;;;;;5.97;100.00;95762.96;108590;1292;22470;-86
2024/03/03 05:34:57;;;;;;;;;;;;;;;5.99;100.00;95767.75;108604;1293;22457;-87
2024/03/03 05:37:23;;;;;;;;;;;;;;;5.99;100.00;95769.31;108527;1298;23219;-87
2024/03/03 05:39:50;;;;;;;;;;;;;;;5.95;100.00;95766.27;108592;1295;22431;-87
2024/03/03 05:42:17;;;;;;;;;;;;;;;5.91;100.00;95769.19;108567;1293;22448;-87
2024/03/03 05:44:43;;;;;;;;;;;;;;;5.86;100.00;95768.70;108599;1297;22440;-87
2024/03/03 05:47:10;;;;;;;;;;;;;;;5.82;100.00;95763.09;108610;1292;22441;-86
2024/03/03 05:49:36;;;;;;;;;;;;;;;5.75;100.00;95765.87;108627;1292;22439;-87
2024/03/03 05:52:03;;;;;;;;;;;;;;;5.74;100.00;95760.52;108586;1298;22452;-87
2024/03/03 05:54:30;;;;;;;;;;;;;;;5.77;100.00;95757.48;108627;1292;22434;-87
2024/03/03 05:56:56;;;;;;;;;;;;;;;5.77;100.00;95757.41;108586;1292;23185;-87
2024/03/03 05:59:23;;;;;;;;;;;;;;;5.78;100.00;95752.20;108581;1293;22497;-87
2024/03/03 06:01:49;;;;;;;;;;;;;;;5.79;100.00;95755.70;108651;1298;22497;-86
2024/03/03 06:04:16;;;;;;;;;;;;;;;5.81;100.00;95758.39;108615;1295;22443;-87
2024/03/03 06:06:43;;;;;;;;;;;;;;;5.78;100.00;95751.80;108712;1297;22401;-86
2024/03/03 06:09:10;;;;;;;;;;;;;;;5.78;100.00;95755.83;108027;1297;22504;-86
2024/03/03 06:11:37;;;;;;;;;;;;;;;5.78;100.00;95752.70;107269;1298;22529;-88
2024/03/03 06:14:06;;;;;;;;;;;;;;;5.79;100.00;95756.96;107237;1297;22560;-88
2024/03/03 06:16:33;;;;;;;;;;;;;;;5.76;100.00;95758.42;107186;1298;22560;-88
2024/03/03 06:19:01;;;;;;;;;;;;;;;5.76;100.00;95760.29;107181;1297;24311;-87
2024/03/03 06:21:28;;;;;;;;;;;;;;;5.76;100.00;95766.84;107389;1297;22534;-88
2024/03/03 06:23:54;;;;;;;;;;;;;;;5.76;100.00;95765.48;107457;1297;25306;-88
2024/03/03 06:26:21;;;;;;;;;;;;;;;5.76;100.00;95763.34;107290;1297;24189;-88
2024/03/03 06:28:48;;;;;;;;;;;;;;;5.78;100.00;95767.86;107205;1298;22521;-88
2024/03/03 06:31:14;;;;;;;;;;;;;;;5.79;100.00;95769.07;107275;1295;22548;-88
2024/03/03 06:33:41;;;;;;;;;;;;;;;5.82;100.00;95770.08;107171;1297;22510;-89
2024/03/03 06:36:14;;;;;;;;;;;;;;;5.84;100.00;95770.23;107169;1295;23190;-88
2024/03/03 06:38:40;;;;;;;;;;;;;;;5.82;100.00;95775.91;107232;1296;23795;-88
2024/03/03 06:41:07;;;;;;;;;;;;;;;5.85;100.00;95769.81;107276;1297;22505;-88
2024/03/03 06:43:33;;;;;;;;;;;;;;;5.86;100.00;95776.79;107266;1286;23311;-88
2024/03/03 06:46:00;;;;;;;;;;;;;;;5.88;100.00;95775.17;107206;1297;24336;-88
2024/03/03 06:48:26;;;;;;;;;;;;;;;5.88;100.00;95778.16;107198;1295;22591;-88
2024/03/03 06:50:53;;;;;;;;;;;;;;;5.91;100.00;95776.73;107222;1297;22556;-88
2024/03/03 06:53:19;;;;;;;;;;;;;;;5.93;100.00;95778.72;107239;1292;23365;-88
2024/03/03 06:55:46;;;;;;;;;;;;;;;5.94;100.00;95776.16;107198;1297;23675;-88
2024/03/03 06:58:12;;;;;;;;;;;;;;;5.98;100.00;95778.53;107153;1297;22547;-88
2024/03/03 07:00:39;;;;;;;;;;;;;;;6.00;100.00;95779.68;107204;1296;25408;-88
2024/03/03 07:05:34;;;;;;;;;;;;;;;6.03;100.00;95781.43;107460;1292;22552;-88
2024/03/03 07:08:02;;;;;;;;;;;;;;;6.07;100.00;95780.52;107336;1298;22570;-87
2024/03/03 07:10:30;;;;;;;;;;;;;;;6.09;100.00;95781.58;107403;1297;22525;-88
2024/03/03 07:12:56;;;;;;;;;;;;;;;6.11;100.00;95777.96;107224;1289;23277;-87
2024/03/03 07:15:23;;;;;;;;;;;;;;;6.12;100.00;95786.59;107202;1292;22551;-88
2024/03/03 07:17:49;;;;;;;;;;;;;;;6.17;100.00;95785.61;108492;1298;22514;-89
2024/03/03 07:20:20;;;;;;;;;;;;;;;6.20;100.00;95779.58;108735;1297;23678;-87
2024/03/03 07:22:46;;;;;;;;;;;;;;;6.23;100.00;95783.29;108649;1292;22451;-87
2024/03/03 07:25:14;;;;;;;;;;;;;;;6.29;100.00;95784.52;108423;1295;23194;-87
2024/03/03 07:27:40;;;;;;;;;;;;;;;6.37;100.00;95782.36;108099;1292;22979;-86
2024/03/03 07:30:07;;;;;;;;;;;;;;;6.44;100.00;95785.82;107272;1292;22510;-86
2024/03/03 07:32:37;;;;;;;;;;;;;;;6.52;100.00;95785.06;107431;1297;22534;-88
2024/03/03 07:35:04;;;;;;;;;;;;;;;6.60;100.00;95777.75;107253;1292;22573;-87
2024/03/03 07:37:31;;;;;;;;;;;;;;;6.67;100.00;95778.45;107125;1289;23705;-88
2024/03/03 07:39:57;;;;;;;;;;;;;;;6.72;100.00;95780.33;107237;1297;23990;-88
2024/03/03 07:42:24;;;;;;;;;;;;;;;6.78;100.00;95779.59;107253;1297;22524;-88
2024/03/03 07:44:50;;;;;;;;;;;;;;;6.87;100.00;95775.31;107146;1295;22518;-88
2024/03/03 07:47:17;;;;;;;;;;;;;;;6.96;100.00;95772.11;107296;1290;22504;-88
2024/03/03 07:49:43;;;;;;;;;;;;;;;7.07;100.00;95769.11;107250;1297;22826;-87
2024/03/03 07:52:10;;;;;;;;;;;;;;;7.18;100.00;95768.34;107372;1295;23987;-88
2024/03/03 07:54:36;;;;;;;;;;;;;;;7.28;100.00;95764.81;107458;1295;22544;-88
2024/03/03 07:57:03;;;;;;;;;;;;;;;7.40;100.00;95757.20;107106;1297;22577;-87
2024/03/03 07:59:29;;;;;;;;;;;;;;;7.52;100.00;95758.17;107194;1297;22527;-87
2024/03/03 08:01:56;;;;;;;;;;;;;;;7.63;100.00;95755.70;107148;1289;24237;-88
2024/03/03 08:04:22;;;;;;;;;;;;;;;7.76;100.00;95761.63;107243;1295;22567;-87
2024/03/03 08:06:49;;;;;;;;;;;;;;;7.89;100.00;95758.39;107178;1292;23107;-88
2024/03/03 08:09:15;;;;;;;;;;;;;;;8.01;100.00;95755.44;107123;1295;22536;-88
2024/03/03 08:11:42;;;;;;;;;;;;;;;8.16;100.00;95754.48;107315;1295;22541;-88
2024/03/03 08:14:08;;;;;;;;;;;;;;;8.29;100.00;95754.65;107420;1293;22504;-87
2024/03/03 08:16:36;;;;;;;;;;;;;;;8.43;100.00;95760.23;107223;1286;25213;-87
2024/03/03 08:19:03;;;;;;;;;;;;;;;8.58;100.00;95764.02;107268;1297;22631;-88
2024/03/03 08:21:30;;;;;;;;;;;;;;;8.73;100.00;95749.61;107297;1297;25217;-88
2024/03/03 08:23:57;;;;;;;;;;;;;;;8.89;100.00;95750.92;107174;1298;25234;-88
2024/03/03 08:26:27;;;;;;;;;;;;;;;9.10;100.00;95749.25;107319;1297;22528;-88
2024/03/03 08:28:53;;;;;;;;;;;;;;;9.21;100.00;95750.38;107315;1292;22566;-88
2024/03/03 08:31:20;;;;;;;;;;;;;;;9.27;100.00;95744.11;107351;1297;24243;-88
2024/03/03 08:33:46;;;;;;;;;;;;;;;9.35;100.00;95742.66;107104;1295;22536;-88
2024/03/03 08:36:13;;;;;;;;;;;;;;;9.44;100.00;95751.09;107259;1297;22533;-88
2024/03/03 08:38:40;;;;;;;;;;;;;;;9.56;97.09;95749.54;108586;1297;22506;-88
2024/03/03 08:41:07;;;;;;;;;;;;;;;9.73;98.87;95753.34;108252;1297;22543;-88
2024/03/03 08:43:33;;;;;;;;;;;;;;;9.83;98.38;95753.52;107369;1292;22550;-87
2024/03/03 08:46:00;;;;;;;;;;;;;;;9.93;97.75;95749.73;108581;1292;22528;-89
2024/03/03 08:48:26;;;;;;;;;;;;;;;10.02;97.11;95746.89;108680;1293;23095;-89
2024/03/03 08:50:53;;;;;;;;;;;;;;;10.12;97.67;95746.59;108408;1294;22473;-89
2024/03/03 08:53:19;;;;;;;;;;;;;;;10.17;98.20;95743.21;108400;1297;22514;-88
2024/03/03 08:55:46;;;;;;;;;;;;;;;10.21;96.07;95754.11;107206;1292;22528;-88
2024/03/03 08:58:12;;;;;;;;;;;;;;;10.30;94.57;95750.80;107453;1297;23167;-88
2024/03/03 09:00:39;;;;;;;;;;;;;;;10.41;90.08;95755.11;107362;1295;23644;-87
2024/03/03 09:03:05;;;;;;;;;;;;;;;10.52;91.40;95761.23;107255;1294;25958;-89
2024/03/03 09:05:32;;;;;;;;;;;;;;;10.60;91.60;95748.80;107244;1298;22589;-87
2024/03/03 09:07:59;;;;;;;;;;;;;;;10.67;92.87;95750.36;107176;1296;22538;-88
2024/03/03 09:10:25;;;;;;;;;;;;;;;10.71;91.01;95748.24;107200;1288;22564;-88
2024/03/03 09:12:53;;;;;;;;;;;;;;;10.76;91.57;95752.95;107389;1297;24684;-89
2024/03/03 09:15:19;;;;;;;;;;;;;;;10.80;90.34;95746.71;107268;1298;22553;-88
2024/03/03 09:17:46;;;;;;;;;;;;;;;10.87;89.46;95743.20;107186;1292;22657;-88
2024/03/03 09:20:17;;;;;;;;;;;;;;;10.96;91.66;95743.40;107060;1298;201424;-87
2024/03/03 09:22:43;;;;;;;;;;;;;;;11.05;92.90;95739.36;107224;1297;23105;-88
2024/03/03 09:25:09;;;;;;;;;;;;;;;11.14;90.67;95734.73;107224;1297;22514;-88
2024/03/03 09:27:36;;;;;;;;;;;;;;;11.20;90.79;95731.95;107276;1295;22597;-87
2024/03/03 09:30:03;;;;;;;;;;;;;;;11.27;92.27;95728.77;107485;1292;22675;-88
2024/03/03 09:32:30;;;;;;;;;;;;;;;11.32;91.03;95738.08;107314;1292;22544;-88
2024/03/03 09:34:56;;;;;;;;;;;;;;;11.36;86.43;95726.61;107339;1297;22559;-88
2024/03/03 09:37:23;;;;;;;;;;;;;;;11.45;89.27;95729.26;107191;1298;25251;-88
2024/03/03 09:39:50;;;;;;;;;;;;;;;11.52;90.67;95726.92;107230;1298;22542;-88
2024/03/03 09:42:16;;;;;;;;;;;;;;;11.59;89.19;95722.55;107284;1290;22533;-88
2024/03/03 09:44:43;;;;;;;;;;;;;;;11.66;87.90;95728.28;107142;1298;25410;-88
2024/03/03 09:47:13;;;;;;;;;;;;;;;11.71;85.59;95726.44;107291;1290;22515;-88
2024/03/03 09:49:39;;;;;;;;;;;;;;;11.78;81.31;95732.84;107107;1298;22978;-88
2024/03/03 09:52:11;;;;;;;;;;;;;;;11.85;84.56;95728.36;107394;1297;22564;-88
2024/03/03 09:54:39;;;;;;;;;;;;;;;11.94;86.56;95732.77;107209;1292;22559;-88
2024/03/03 09:57:09;;;;;;;;;;;;;;;12.01;86.42;95740.98;107474;1297;24319;-88
2024/03/03 09:59:38;;;;;;;;;;;;;;;12.07;84.78;95738.38;108473;1292;22465;-89
2024/03/03 10:02:05;;;;;;;;;;;;;;;12.09;83.77;95736.84;108526;1293;22442;-88
2024/03/03 10:04:32;;;;;;;;;;;;;;;12.14;83.03;95744.14;108555;1292;22434;-88
2024/03/03 10:06:59;;;;;;;;;;;;;;;12.20;82.12;95739.84;107191;1298;23141;-88
2024/03/03 10:09:26;;;;;;;;;;;;;;;12.26;84.11;95740.22;107201;1297;22655;-88
2024/03/03 10:11:52;;;;;;;;;;;;;;;12.31;81.77;95738.71;107381;1297;23245;-88
2024/03/03 10:14:19;;;;;;;;;;;;;;;12.38;83.77;95740.17;107325;1297;22513;-88
2024/03/03 10:16:45;;;;;;;;;;;;;;;12.46;83.59;95740.95;107359;1297;23846;-88
2024/03/03 10:19:13;;;;;;;;;;;;;;;12.51;81.68;95743.16;107215;1297;22647;-88
2024/03/03 10:21:40;;;;;;;;;;;;;;;12.58;80.87;95747.48;107215;1297;22613;-88
2024/03/03 10:24:20;;;;;;;;;;;;;;;12.66;79.25;95744.29;107224;1297;24297;-88
2024/03/03 10:26:48;;;;;;;;;;;;;;;12.72;80.77;95736.52;107251;1297;23388;-88
2024/03/03 10:29:19;;;;;;;;;;;;;;;12.73;80.07;95732.80;107518;1297;22512;-88
2024/03/03 10:31:48;;;;;;;;;;;;;;;12.80;80.48;95740.07;107207;1297;23293;-88
2024/03/03 10:34:14;;;;;;;;;;;;;;;12.89;78.87;95736.65;107241;1297;22545;-88
2024/03/03 10:36:41;;;;;;;;;;;;;;;12.96;80.01;95729.20;107142;1297;24795;-88
2024/03/03 10:39:09;;;;;;;;;;;;;;;13.02;79.36;95724.00;107329;1290;25414;-88
2024/03/03 10:41:36;;;;;;;;;;;;;;;13.06;79.67;95722.60;107333;1292;23946;-88
2024/03/03 10:44:03;;;;;;;;;;;;;;;13.07;79.40;95715.13;107156;1294;24369;-88
2024/03/03 10:46:30;;;;;;;;;;;;;;;13.13;80.21;95718.89;107377;1292;23624;-88
2024/03/03 10:48:56;;;;;;;;;;;;;;;13.20;78.81;95719.31;107289;1295;22563;-88
2024/03/03 10:51:24;;;;;;;;;;;;;;;13.24;77.59;95712.17;107223;1297;22518;-88
2024/03/03 10:53:51;;;;;;;;;;;;;;;13.27;77.15;95712.05;107194;1290;22545;-88
2024/03/03 10:56:18;;;;;;;;;;;;;;;13.28;77.29;95705.70;107176;1295;23908;-88
2024/03/03 10:58:45;;;;;;;;;;;;;;;13.29;77.53;95705.48;107266;1290;22525;-88
2024/03/03 11:01:13;;;;;;;;;;;;;;;13.28;75.02;95696.68;108608;1292;22476;-89
2024/03/03 11:03:40;;;;;;;;;;;;;;;13.25;76.16;95694.05;108715;1297;23158;-86
2024/03/03 11:06:07;;;;;;;;;;;;;;;13.28;76.37;95692.30;108435;1297;22441;-87
2024/03/03 11:08:33;;;;;;;;;;;;;;;13.36;76.14;95691.71;108475;1292;22582;-87
2024/03/03 11:11:03;;;;;;;;;;;;;;;13.40;76.13;95688.55;108507;1297;23111;-87
2024/03/03 11:13:31;;;;;;;;;;;;;;;13.44;75.83;95691.27;108503;1292;22459;-86
2024/03/03 11:15:59;;;;;;;;;;;;;;;13.50;75.43;95686.94;108570;1296;22949;-87
2024/03/03 11:18:25;;;;;;;;;;;;;;;13.54;75.20;95685.36;108507;1291;22642;-86
2024/03/03 11:20:56;;;;;;;;;;;;;;;13.59;75.34;95682.52;108635;1293;22457;-87
2024/03/03 11:23:26;;;;;;;;;;;;;;;13.64;75.31;95681.41;108545;1295;22465;-87
2024/03/03 11:26:09;;;;;;;;;;;;;;;13.70;75.29;95675.90;108532;1297;22457;-87
2024/03/03 11:28:36;;;;;;;;;;;;;;;13.76;75.20;95674.25;108601;1290;22498;-86
2024/03/03 11:31:02;;;;;;;;;;;;;;;13.82;74.36;95675.70;108600;1295;22465;-87
2024/03/03 11:33:29;;;;;;;;;;;;;;;13.82;72.79;95668.04;108550;1298;22476;-86
2024/03/03 11:35:55;;;;;;;;;;;;;;;13.87;72.86;95671.36;108471;1298;23155;-86
2024/03/03 11:38:22;;;;;;;;;;;;;;;13.91;72.86;95671.11;108408;1295;22443;-87
2024/03/03 11:40:48;;;;;;;;;;;;;;;13.92;73.23;95665.76;108505;1290;23199;-87
2024/03/03 11:43:15;;;;;;;;;;;;;;;13.93;74.02;95657.54;108436;1295;22473;-87
2024/03/03 11:45:44;;;;;;;;;;;;;;;13.98;73.28;95661.21;108477;1296;22469;-86
2024/03/03 11:48:14;;;;;;;;;;;;;;;13.97;70.17;95669.54;108422;1298;22490;-87
2024/03/03 11:50:41;;;;;;;;;;;;;;;13.96;70.01;95660.36;108465;1291;22486;-86
2024/03/03 11:53:07;;;;;;;;;;;;;;;13.95;71.27;95653.61;108509;1295;23058;-87
2024/03/03 11:55:38;;;;;;;;;;;;;;;13.97;71.55;95655.44;108488;1292;23151;-87
2024/03/03 11:58:05;;;;;;;;;;;;;;;13.98;70.96;95644.69;108470;1298;22449;-86
2024/03/03 12:00:31;;;;;;;;;;;;;;;14.01;70.84;95636.80;108478;1290;22468;-87
2024/03/03 12:02:58;;;;;;;;;;;;;;;14.04;69.81;95642.21;108507;1292;22440;-87
2024/03/03 12:05:25;;;;;;;;;;;;;;;14.03;69.54;95640.40;108521;1281;22550;-87
2024/03/03 12:07:52;;;;;;;;;;;;;;;14.05;69.14;95650.45;108512;1298;22430;-87
2024/03/03 12:10:20;;;;;;;;;;;;;;;14.07;67.24;95645.32;108493;1291;23254;-87
2024/03/03 12:12:47;;;;;;;;;;;;;;;14.06;66.83;95637.45;108591;1292;22475;-87
2024/03/03 12:15:16;;;;;;;;;;;;;;;14.06;68.87;95633.34;107250;1296;22515;-86
2024/03/03 12:17:43;;;;;;;;;;;;;;;14.09;68.95;95633.94;107195;1292;24221;-86
2024/03/03 12:20:13;;;;;;;;;;;;;;;14.12;68.02;95633.63;107165;1290;22517;-85
2024/03/03 12:22:40;;;;;;;;;;;;;;;14.11;66.73;95637.27;107452;1298;25459;-86
2024/03/03 12:25:07;;;;;;;;;;;;;;;14.15;68.04;95637.85;107243;1298;24288;-87
2024/03/03 12:27:33;;;;;;;;;;;;;;;14.14;67.05;95628.46;107166;1297;22565;-86
2024/03/03 12:30:00;;;;;;;;;;;;;;;14.11;67.17;95630.38;107221;1297;23852;-85
2024/03/03 12:32:27;;;;;;;;;;;;;;;14.13;68.75;95630.79;107178;1292;24208;-86
2024/03/03 12:34:56;;;;;;;;;;;;;;;14.16;68.06;95628.73;107197;1290;22523;-86
2024/03/03 12:37:23;;;;;;;;;;;;;;;14.16;67.46;95628.36;107192;1292;22500;-86
2024/03/03 12:39:51;;;;;;;;;;;;;;;14.19;66.87;95626.88;107220;1292;23863;-87